CheckWX is a tool to help pilots better visualize weather data.  It is not intended as a substitute for an official pre-flight weather briefing.

08:15:12 UTC

KFGX METAR
Fleming-Mason Airport
Flemingsburg, Kentucky, USA
Current

20 mins ago

KFGX 220755Z AUTO 03006KT 10SM CLR 04/00 A3027 RMK AO2 T00381002
Observed
Feb-22 @ 07:55 UTC
Wind
  • 030° at 6 KTS
Visibility
10 SM
Flight Rules
VFR
Cloud Levels
  • Clear skies
Temperature
C / 39°F
Dewpoint
-0°C / 32°F
Humidity
75%
Altimeter
30.27" Hg
Pressure
1025.02 hPa
Previous

40 mins ago

KFGX 220735Z AUTO 05005KT 10SM BKN120 04/00 A3027 RMK AO2 T00370000
Observed
Feb-22 @ 07:35 UTC
Wind
  • 050° at 5 KTS
Visibility
10 SM
Flight Rules
VFR
Cloud Levels
  • Broken at 12,000' AGL
Temperature
C / 39°F
Dewpoint
C / 32°F
Humidity
75%
Altimeter
30.27" Hg
Pressure
1025.02 hPa
Previous

60 mins ago

KFGX 220715Z AUTO 06005KT 10SM BKN110 04/00 A3027 RMK AO2 T00390000
Observed
Feb-22 @ 07:15 UTC
Wind
  • 060° at 5 KTS
Visibility
10 SM
Flight Rules
VFR
Cloud Levels
  • Broken at 11,000' AGL
Temperature
C / 39°F
Dewpoint
C / 32°F
Humidity
75%
Altimeter
30.27" Hg
Pressure
1025.02 hPa